Ypres City Race

Local: Ypres
( - Bélgica)
Organização: TROL
WWW: http://www.orio...
Calendário: City Race Euro Tour Limites de Inscrição:
(sem agravamento) 31-05-2018 00:00:00
(escalões competição) 31-05-2018 00:00:00
(inscrições online) 31-05-2018 12:00:00
(cancelar esc. competição) 31-05-2018 23:59:59
(cancelar esc. abertos) 31-05-2018 12:00:00
Supervisor:
Data: 01-07-18 + Info:
(toda a info)
Etapas (1):
01-07-2018 (Ypres City Race - City Race Euro Tour)
| | | | | | |
Descrição Carregado em Opções
Etapa 1 - 01-07-2018 - Ypres City Race (Individual) 2018-08-05 08:54:43
 
Resultados da Etapa 1 - 01-07-2018 - Ypres City Race (Individual)
Clube: Escalão: Percurso: Ver    
Listar todos resultados e agrupar por:
W VET , 0C, 5110km, 0m (52)
Cl. Nome Atleta Lic. SI Clube Tempo Min/Km Pontos
1 Tanya TAYLOR Lincoln Orienteering Group 42:27 0:00 100,00
2 Sofie HEUNINCKX K.O.L. 42:53 0:00 98,98
3 Ulrika BORNETUN Bogla OK 44:32 0:00 95,32
4 Katja VAN OOSTERWIJCK Omega 45:03 0:00 94,22
5 Virpi KOMULAINEN Olifant 48:13 0:00 88,04
6 Hilde BREESCH TROL 48:40 0:00 87,22
7 Helen PARKINSON Nottinghamshire 48:52 0:00 86,86
8 Marijs VANDEWEYER hamok 48:55 0:00 86,78
9 Kristel MERTENS TROL 49:02 0:00 86,57
10 Greet PERSOON TROL 49:21 0:00 86,01
11 Nadège URVOAS Guyancourt Orientation 78 50:16 0:00 84,44
12 Laura KUCINSKA AC Beauchamp 51:24 0:00 82,58
13 Dorothea WILDHABER OLG KÖLLIKEN 53:00 0:00 80,09
14 Ellen DE BIE Omega 53:12 0:00 79,79
15 Valérie AUGHUET Hainaut O.C. 54:07 0:00 78,44
16 Karen BECKMAN HBOC 55:20 0:00 76,71
17 Tatiana LIABZINA Krasnoyarsk 55:45 0:00 76,14
18 Geneviève NYS Hainaut O.C. 57:01 0:00 74,45
19 Virginie DEHULLU K.O.L. 57:04 0:00 74,38
20 Angelique DE GRANDE Omega 58:34 0:00 72,48
21 Betty DE MEYER TROL 58:34 0:00 72,48
22 Céline ICEAGA Guyancourt Orientation 78 58:39 0:00 72,37
23 Roos VAN BRUGGEN TROL 58:41 0:00 72,33
24 Leen JESPERS TROL 59:47 0:00 71,00
25 Bieke VAN ELSACKER Omega 1:01:57 0:00 68,52
26 Clare HANNA Lincoln Orienteering Group 1:02:07 0:00 68,33
27 Sofie D'HONDT Omega 1:02:10 0:00 68,28
28 Mia KINNAER Omega 1:03:12 0:00 67,16
29 Nicole REVENCU ASUB 1:03:24 0:00 66,95
30 Katleen VAN DE MOORTEL Omega 1:04:11 0:00 66,13
31 Luz FERNANDEZ SUAREZ Astur Extrem 1:04:29 0:00 65,83
32 Annelies GEBOERS K.O.L. 1:06:34 0:00 63,77
33 Angela DARLEY Guildford Orienteers 1:06:58 0:00 63,38
34 Sónia SARAMAGO 4327 Lisboa 1:08:00 0:00 62,42
35 Nathalie VERSCHAEREN Borasca 1:08:46 0:00 61,73
36 Lina JASULAITYTE Olifant 1:09:23 0:00 61,18
37 Corinne SERVAIS ASUB 1:13:18 0:00 57,91
38 Francine SERRE Altaïr C.O. 1:14:28 0:00 57,00
39 Clara COX Omega 1:16:59 0:00 55,14
40 An VERBERNE hamok 1:18:28 0:00 54,09
41 Yolanda FUERST indiv 1:21:13 0:00 52,26
42 Teresa DIAZ TOLEDO C.D.C.E.B.E. 1:24:17 0:00 50,36
43 Jillian DEVINE Southampton Orienteering Club 1:24:29 0:00 50,24
44 Marie DEMEUSE C.O. Liège 1:27:43 0:01 48,39
45 Anja POTVIN CO Colmar 1:30:23 0:01 46,96
46 Annabelle LIEGEOIS Balise 10 1:31:57 0:01 46,16
47 Sabrina PALM Hermathenae 1:36:54 0:01 43,80
An VAN DE POL Omega mp 0:00
Ellen DESCHEPPER TROL mp 0:00
Anne CUNNINGHAM Derwent Valley Orienteers mp 0:00
Filipa AGUILAR 5608 Omega mp 0:00
Isabel VEGA 33005430 Astur Extrem mp 0:00
 

Nota: os ficheiros fonte (.csv) são os ficheiros dos resultados fornecidos pela organização, pelo que :
  • O SplitsBrowser pode não conseguir carregar o ficheiro, pois este não está no formato especificado (ex:. ficheiro apenas com tempos totais em vez do ficheiro com todos os splits, etc.)
  • Os resultados presentes nos ficheiros não representam o nº total de atletas que fizeram o percurso/prova, mas apenas o nº de inscrições na prova (ex.: uma inscrição de um grupo pode conter vários atletas)